sensor_id;sensor_type;location;lat;lon;timestamp;temperature;humidity
44461;DHT22;30162;53.642;10.640;2023-05-27T00:00:11;14.60;79.50
44461;DHT22;30162;53.642;10.640;2023-05-27T00:02:38;14.60;79.00
44461;DHT22;30162;53.642;10.640;2023-05-27T00:05:04;14.60;79.60
44461;DHT22;30162;53.642;10.640;2023-05-27T00:07:30;14.60;79.20
44461;DHT22;30162;53.642;10.640;2023-05-27T00:09:56;14.60;79.50
44461;DHT22;30162;53.642;10.640;2023-05-27T00:12:22;14.60;79.70
44461;DHT22;30162;53.642;10.640;2023-05-27T00:14:47;14.60;79.60
44461;DHT22;30162;53.642;10.640;2023-05-27T00:17:12;14.60;79.90
44461;DHT22;30162;53.642;10.640;2023-05-27T00:19:41;14.60;79.60
44461;DHT22;30162;53.642;10.640;2023-05-27T00:22:10;14.60;79.40
44461;DHT22;30162;53.642;10.640;2023-05-27T00:24:36;14.60;79.50
44461;DHT22;30162;53.642;10.640;2023-05-27T00:27:08;14.60;79.40
44461;DHT22;30162;53.642;10.640;2023-05-27T00:29:33;14.60;79.60
44461;DHT22;30162;53.642;10.640;2023-05-27T00:32:02;14.80;79.10
44461;DHT22;30162;53.642;10.640;2023-05-27T00:34:28;14.90;78.40
44461;DHT22;30162;53.642;10.640;2023-05-27T00:36:53;14.80;78.60
44461;DHT22;30162;53.642;10.640;2023-05-27T00:39:19;14.70;79.00
44461;DHT22;30162;53.642;10.640;2023-05-27T00:41:47;14.50;79.60
44461;DHT22;30162;53.642;10.640;2023-05-27T00:44:13;14.50;79.40
44461;DHT22;30162;53.642;10.640;2023-05-27T00:46:38;14.50;79.10
44461;DHT22;30162;53.642;10.640;2023-05-27T00:49:04;14.50;78.90
44461;DHT22;30162;53.642;10.640;2023-05-27T00:51:29;14.40;79.40
44461;DHT22;30162;53.642;10.640;2023-05-27T00:53:56;14.30;79.30
44461;DHT22;30162;53.642;10.640;2023-05-27T00:56:21;14.30;79.50
44461;DHT22;30162;53.642;10.640;2023-05-27T00:58:47;14.30;79.20
44461;DHT22;30162;53.642;10.640;2023-05-27T01:01:12;14.30;79.20
44461;DHT22;30162;53.642;10.640;2023-05-27T01:03:38;14.20;79.00
44461;DHT22;30162;53.642;10.640;2023-05-27T01:06:33;14.10;79.30
44461;DHT22;30162;53.642;10.640;2023-05-27T01:08:58;14.10;79.20
44461;DHT22;30162;53.642;10.640;2023-05-27T01:11:26;14.00;79.60
44461;DHT22;30162;53.642;10.640;2023-05-27T01:13:55;13.90;79.70
44461;DHT22;30162;53.642;10.640;2023-05-27T01:16:21;13.80;79.70
44461;DHT22;30162;53.642;10.640;2023-05-27T01:18:49;13.70;80.00
44461;DHT22;30162;53.642;10.640;2023-05-27T01:21:17;13.70;80.10
44461;DHT22;30162;53.642;10.640;2023-05-27T01:23:43;13.70;80.10
44461;DHT22;30162;53.642;10.640;2023-05-27T01:26:11;13.60;80.20
44461;DHT22;30162;53.642;10.640;2023-05-27T01:28:37;13.60;80.90
44461;DHT22;30162;53.642;10.640;2023-05-27T01:31:10;13.60;80.50
44461;DHT22;30162;53.642;10.640;2023-05-27T01:33:37;13.60;80.80
44461;DHT22;30162;53.642;10.640;2023-05-27T01:36:13;13.50;81.40
44461;DHT22;30162;53.642;10.640;2023-05-27T01:38:40;13.60;81.00
44461;DHT22;30162;53.642;10.640;2023-05-27T01:41:07;13.60;80.70
44461;DHT22;30162;53.642;10.640;2023-05-27T01:43:34;13.60;80.70
44461;DHT22;30162;53.642;10.640;2023-05-27T01:46:00;13.50;80.70
44461;DHT22;30162;53.642;10.640;2023-05-27T01:48:25;13.50;81.00
44461;DHT22;30162;53.642;10.640;2023-05-27T01:50:51;13.50;81.00
44461;DHT22;30162;53.642;10.640;2023-05-27T01:53:16;13.50;80.50
44461;DHT22;30162;53.642;10.640;2023-05-27T01:55:42;13.40;80.60
44461;DHT22;30162;53.642;10.640;2023-05-27T01:58:07;13.30;80.90
44461;DHT22;30162;53.642;10.640;2023-05-27T02:00:33;13.20;81.10
44461;DHT22;30162;53.642;10.640;2023-05-27T02:02:58;13.20;81.10
44461;DHT22;30162;53.642;10.640;2023-05-27T02:05:23;13.30;81.50
44461;DHT22;30162;53.642;10.640;2023-05-27T02:07:49;13.40;81.00
44461;DHT22;30162;53.642;10.640;2023-05-27T02:10:15;13.30;80.60
44461;DHT22;30162;53.642;10.640;2023-05-27T02:12:40;13.20;81.00
44461;DHT22;30162;53.642;10.640;2023-05-27T02:15:06;13.10;81.30
44461;DHT22;30162;53.642;10.640;2023-05-27T02:17:31;13.10;81.50
44461;DHT22;30162;53.642;10.640;2023-05-27T02:19:57;13.10;81.90
44461;DHT22;30162;53.642;10.640;2023-05-27T02:22:22;13.00;82.00
44461;DHT22;30162;53.642;10.640;2023-05-27T02:24:48;13.00;82.00
44461;DHT22;30162;53.642;10.640;2023-05-27T02:27:13;13.00;82.30
44461;DHT22;30162;53.642;10.640;2023-05-27T02:29:39;12.90;82.60
44461;DHT22;30162;53.642;10.640;2023-05-27T02:32:04;12.90;82.30
44461;DHT22;30162;53.642;10.640;2023-05-27T02:34:30;12.90;82.70
44461;DHT22;30162;53.642;10.640;2023-05-27T02:36:55;13.00;82.60
44461;DHT22;30162;53.642;10.640;2023-05-27T02:39:21;13.00;82.20
44461;DHT22;30162;53.642;10.640;2023-05-27T02:41:47;12.90;82.50
44461;DHT22;30162;53.642;10.640;2023-05-27T02:44:12;12.90;82.50
44461;DHT22;30162;53.642;10.640;2023-05-27T02:46:38;13.00;82.60
44461;DHT22;30162;53.642;10.640;2023-05-27T02:49:03;12.90;82.50
44461;DHT22;30162;53.642;10.640;2023-05-27T02:51:28;12.90;82.60
44461;DHT22;30162;53.642;10.640;2023-05-27T02:53:54;12.90;82.80
44461;DHT22;30162;53.642;10.640;2023-05-27T02:56:20;12.90;82.70
44461;DHT22;30162;53.642;10.640;2023-05-27T02:58:46;12.90;82.60
44461;DHT22;30162;53.642;10.640;2023-05-27T03:01:11;12.80;82.90
44461;DHT22;30162;53.642;10.640;2023-05-27T03:03:37;13.00;83.20
44461;DHT22;30162;53.642;10.640;2023-05-27T03:06:02;13.10;82.80
44461;DHT22;30162;53.642;10.640;2023-05-27T03:08:28;13.00;82.10
44461;DHT22;30162;53.642;10.640;2023-05-27T03:10:53;12.90;82.20
44461;DHT22;30162;53.642;10.640;2023-05-27T03:13:19;13.00;82.80
44461;DHT22;30162;53.642;10.640;2023-05-27T03:15:44;13.00;82.00
44461;DHT22;30162;53.642;10.640;2023-05-27T03:18:10;13.00;82.60
44461;DHT22;30162;53.642;10.640;2023-05-27T03:20:35;12.90;82.80
44461;DHT22;30162;53.642;10.640;2023-05-27T03:23:01;13.00;82.50
44461;DHT22;30162;53.642;10.640;2023-05-27T03:25:26;13.00;82.60
44461;DHT22;30162;53.642;10.640;2023-05-27T03:27:52;12.90;82.70
44461;DHT22;30162;53.642;10.640;2023-05-27T03:30:18;13.00;83.20
44461;DHT22;30162;53.642;10.640;2023-05-27T03:32:44;13.00;82.60
44461;DHT22;30162;53.642;10.640;2023-05-27T03:35:09;13.10;82.70
44461;DHT22;30162;53.642;10.640;2023-05-27T03:37:35;13.20;82.60
44461;DHT22;30162;53.642;10.640;2023-05-27T03:40:00;13.20;82.60
44461;DHT22;30162;53.642;10.640;2023-05-27T03:42:26;13.30;82.90
44461;DHT22;30162;53.642;10.640;2023-05-27T03:44:51;13.30;82.00
44461;DHT22;30162;53.642;10.640;2023-05-27T03:47:17;13.30;82.40
44461;DHT22;30162;53.642;10.640;2023-05-27T03:49:45;13.30;82.30
44461;DHT22;30162;53.642;10.640;2023-05-27T03:52:11;13.30;82.60
44461;DHT22;30162;53.642;10.640;2023-05-27T03:54:36;13.30;82.60
44461;DHT22;30162;53.642;10.640;2023-05-27T03:57:02;13.40;82.80
44461;DHT22;30162;53.642;10.640;2023-05-27T03:59:27;13.50;82.90
44461;DHT22;30162;53.642;10.640;2023-05-27T04:01:53;13.70;82.70
44461;DHT22;30162;53.642;10.640;2023-05-27T04:04:18;13.70;82.40
44461;DHT22;30162;53.642;10.640;2023-05-27T04:06:44;13.70;82.40
44461;DHT22;30162;53.642;10.640;2023-05-27T04:09:09;13.70;83.00
44461;DHT22;30162;53.642;10.640;2023-05-27T04:11:35;13.70;82.90
44461;DHT22;30162;53.642;10.640;2023-05-27T04:14:00;13.80;83.30
44461;DHT22;30162;53.642;10.640;2023-05-27T04:16:25;13.90;82.80
44461;DHT22;30162;53.642;10.640;2023-05-27T04:18:51;14.00;82.30
44461;DHT22;30162;53.642;10.640;2023-05-27T04:21:20;14.10;82.70
44461;DHT22;30162;53.642;10.640;2023-05-27T04:23:45;14.20;82.50
44461;DHT22;30162;53.642;10.640;2023-05-27T04:26:11;14.30;82.50
44461;DHT22;30162;53.642;10.640;2023-05-27T04:28:37;14.30;82.00
44461;DHT22;30162;53.642;10.640;2023-05-27T04:31:04;14.40;81.90
44461;DHT22;30162;53.642;10.640;2023-05-27T04:33:29;14.40;82.40
44461;DHT22;30162;53.642;10.640;2023-05-27T04:35:55;14.50;82.20
44461;DHT22;30162;53.642;10.640;2023-05-27T04:38:21;14.50;82.20
44461;DHT22;30162;53.642;10.640;2023-05-27T04:40:47;14.60;82.30
44461;DHT22;30162;53.642;10.640;2023-05-27T04:43:21;14.60;82.50
44461;DHT22;30162;53.642;10.640;2023-05-27T04:45:47;14.80;82.20
44461;DHT22;30162;53.642;10.640;2023-05-27T04:48:13;14.80;82.00
44461;DHT22;30162;53.642;10.640;2023-05-27T04:50:39;14.80;82.30
44461;DHT22;30162;53.642;10.640;2023-05-27T04:53:06;14.90;82.10
44461;DHT22;30162;53.642;10.640;2023-05-27T04:55:31;15.10;81.40
44461;DHT22;30162;53.642;10.640;2023-05-27T04:57:57;15.30;80.80
44461;DHT22;30162;53.642;10.640;2023-05-27T05:00:23;15.30;80.80
44461;DHT22;30162;53.642;10.640;2023-05-27T05:03:01;15.40;80.30
44461;DHT22;30162;53.642;10.640;2023-05-27T05:05:27;15.40;80.50
44461;DHT22;30162;53.642;10.640;2023-05-27T05:07:53;15.50;80.80
44461;DHT22;30162;53.642;10.640;2023-05-27T05:10:19;15.60;80.60
44461;DHT22;30162;53.642;10.640;2023-05-27T05:12:44;15.80;80.60
44461;DHT22;30162;53.642;10.640;2023-05-27T05:15:09;16.00;79.60
44461;DHT22;30162;53.642;10.640;2023-05-27T05:20:01;16.20;78.70
44461;DHT22;30162;53.642;10.640;2023-05-27T05:22:28;16.20;79.10
44461;DHT22;30162;53.642;10.640;2023-05-27T05:24:54;16.30;79.60
44461;DHT22;30162;53.642;10.640;2023-05-27T05:27:19;16.40;79.10
44461;DHT22;30162;53.642;10.640;2023-05-27T05:29:45;16.50;79.40
44461;DHT22;30162;53.642;10.640;2023-05-27T05:32:11;16.60;78.60
44461;DHT22;30162;53.642;10.640;2023-05-27T05:34:37;16.70;78.40
44461;DHT22;30162;53.642;10.640;2023-05-27T05:37:02;16.80;78.30
44461;DHT22;30162;53.642;10.640;2023-05-27T05:39:28;16.80;78.00
44461;DHT22;30162;53.642;10.640;2023-05-27T05:41:53;16.90;78.00
44461;DHT22;30162;53.642;10.640;2023-05-27T05:44:19;17.10;78.30
44461;DHT22;30162;53.642;10.640;2023-05-27T05:46:44;17.20;78.00
44461;DHT22;30162;53.642;10.640;2023-05-27T05:49:10;17.40;78.00
44461;DHT22;30162;53.642;10.640;2023-05-27T05:51:35;17.40;78.20
44461;DHT22;30162;53.642;10.640;2023-05-27T05:54:01;17.60;77.70
44461;DHT22;30162;53.642;10.640;2023-05-27T05:56:26;17.80;77.90
44461;DHT22;30162;53.642;10.640;2023-05-27T05:58:52;17.90;76.40
44461;DHT22;30162;53.642;10.640;2023-05-27T06:01:17;18.10;76.50
44461;DHT22;30162;53.642;10.640;2023-05-27T06:03:43;18.20;76.30
44461;DHT22;30162;53.642;10.640;2023-05-27T06:06:09;18.30;75.70
44461;DHT22;30162;53.642;10.640;2023-05-27T06:08:35;18.50;76.00
44461;DHT22;30162;53.642;10.640;2023-05-27T06:11:00;18.60;76.20
44461;DHT22;30162;53.642;10.640;2023-05-27T06:13:25;18.70;75.90
44461;DHT22;30162;53.642;10.640;2023-05-27T06:15:51;18.80;76.40
44461;DHT22;30162;53.642;10.640;2023-05-27T06:18:16;18.90;75.20
44461;DHT22;30162;53.642;10.640;2023-05-27T06:20:42;18.80;74.80
44461;DHT22;30162;53.642;10.640;2023-05-27T06:23:07;19.00;74.90
44461;DHT22;30162;53.642;10.640;2023-05-27T06:25:33;19.10;74.70
44461;DHT22;30162;53.642;10.640;2023-05-27T06:27:58;19.20;74.30
44461;DHT22;30162;53.642;10.640;2023-05-27T06:30:24;19.30;75.00
44461;DHT22;30162;53.642;10.640;2023-05-27T06:32:50;19.60;73.80
44461;DHT22;30162;53.642;10.640;2023-05-27T06:35:16;19.50;74.10
44461;DHT22;30162;53.642;10.640;2023-05-27T06:37:41;19.60;75.20
44461;DHT22;30162;53.642;10.640;2023-05-27T06:40:07;20.00;73.60
44461;DHT22;30162;53.642;10.640;2023-05-27T06:42:32;20.20;73.30
44461;DHT22;30162;53.642;10.640;2023-05-27T06:44:58;20.40;72.80
44461;DHT22;30162;53.642;10.640;2023-05-27T06:47:23;20.50;72.40
44461;DHT22;30162;53.642;10.640;2023-05-27T06:49:49;20.70;71.50
44461;DHT22;30162;53.642;10.640;2023-05-27T06:52:14;20.80;71.10
44461;DHT22;30162;53.642;10.640;2023-05-27T06:54:40;20.90;70.50
44461;DHT22;30162;53.642;10.640;2023-05-27T06:57:06;21.10;70.20
44461;DHT22;30162;53.642;10.640;2023-05-27T06:59:31;21.30;70.20
44461;DHT22;30162;53.642;10.640;2023-05-27T07:01:57;21.40;69.70
44461;DHT22;30162;53.642;10.640;2023-05-27T07:04:22;21.40;69.50
44461;DHT22;30162;53.642;10.640;2023-05-27T07:06:48;21.50;70.00
44461;DHT22;30162;53.642;10.640;2023-05-27T07:09:13;21.40;70.30
44461;DHT22;30162;53.642;10.640;2023-05-27T07:11:39;21.60;69.60
44461;DHT22;30162;53.642;10.640;2023-05-27T07:14:05;21.90;68.30
44461;DHT22;30162;53.642;10.640;2023-05-27T07:16:30;22.00;68.50
44461;DHT22;30162;53.642;10.640;2023-05-27T07:18:56;22.10;67.70
44461;DHT22;30162;53.642;10.640;2023-05-27T07:21:21;22.30;67.50
44461;DHT22;30162;53.642;10.640;2023-05-27T07:23:47;22.20;68.00
44461;DHT22;30162;53.642;10.640;2023-05-27T07:26:12;22.30;67.50
44461;DHT22;30162;53.642;10.640;2023-05-27T07:28:38;22.60;67.10
44461;DHT22;30162;53.642;10.640;2023-05-27T07:31:03;22.80;64.60
44461;DHT22;30162;53.642;10.640;2023-05-27T07:33:30;23.00;63.90
44461;DHT22;30162;53.642;10.640;2023-05-27T07:35:55;23.20;63.70
44461;DHT22;30162;53.642;10.640;2023-05-27T07:38:21;23.30;63.40
44461;DHT22;30162;53.642;10.640;2023-05-27T07:40:46;23.10;63.60
44461;DHT22;30162;53.642;10.640;2023-05-27T07:43:12;23.00;64.00
44461;DHT22;30162;53.642;10.640;2023-05-27T07:45:37;23.20;64.10
44461;DHT22;30162;53.642;10.640;2023-05-27T07:48:03;23.00;62.80
44461;DHT22;30162;53.642;10.640;2023-05-27T07:50:28;23.10;62.70
44461;DHT22;30162;53.642;10.640;2023-05-27T07:52:54;23.40;60.90
44461;DHT22;30162;53.642;10.640;2023-05-27T07:55:19;23.60;60.70
44461;DHT22;30162;53.642;10.640;2023-05-27T07:57:45;23.50;60.20
44461;DHT22;30162;53.642;10.640;2023-05-27T08:00:10;23.40;61.90
44461;DHT22;30162;53.642;10.640;2023-05-27T08:02:36;23.60;59.50
44461;DHT22;30162;53.642;10.640;2023-05-27T08:05:02;23.70;59.60
44461;DHT22;30162;53.642;10.640;2023-05-27T08:07:29;23.90;59.70
44461;DHT22;30162;53.642;10.640;2023-05-27T08:09:54;23.40;59.40
44461;DHT22;30162;53.642;10.640;2023-05-27T08:12:20;22.90;60.40
44461;DHT22;30162;53.642;10.640;2023-05-27T08:14:46;22.70;61.70
44461;DHT22;30162;53.642;10.640;2023-05-27T08:17:11;22.80;61.40
44461;DHT22;30162;53.642;10.640;2023-05-27T08:19:37;23.30;58.70
44461;DHT22;30162;53.642;10.640;2023-05-27T08:22:02;23.50;58.30
44461;DHT22;30162;53.642;10.640;2023-05-27T08:24:28;23.50;59.40
44461;DHT22;30162;53.642;10.640;2023-05-27T08:26:56;23.10;59.40
44461;DHT22;30162;53.642;10.640;2023-05-27T08:29:22;22.90;61.30
44461;DHT22;30162;53.642;10.640;2023-05-27T08:31:48;23.00;60.20
44461;DHT22;30162;53.642;10.640;2023-05-27T08:34:16;23.00;60.10
44461;DHT22;30162;53.642;10.640;2023-05-27T08:36:42;22.40;60.80
44461;DHT22;30162;53.642;10.640;2023-05-27T08:39:07;22.30;62.70
44461;DHT22;30162;53.642;10.640;2023-05-27T08:41:33;22.50;61.80
44461;DHT22;30162;53.642;10.640;2023-05-27T08:43:59;23.00;61.80
44461;DHT22;30162;53.642;10.640;2023-05-27T08:46:24;23.30;60.60
44461;DHT22;30162;53.642;10.640;2023-05-27T08:48:51;23.70;60.10
44461;DHT22;30162;53.642;10.640;2023-05-27T08:51:18;24.50;57.60
44461;DHT22;30162;53.642;10.640;2023-05-27T08:53:47;25.00;58.40
44461;DHT22;30162;53.642;10.640;2023-05-27T08:56:14;25.50;56.80
44461;DHT22;30162;53.642;10.640;2023-05-27T08:58:40;25.70;56.10
44461;DHT22;30162;53.642;10.640;2023-05-27T09:01:07;25.70;56.30
44461;DHT22;30162;53.642;10.640;2023-05-27T09:03:33;25.80;56.20
44461;DHT22;30162;53.642;10.640;2023-05-27T09:05:59;25.90;55.80
44461;DHT22;30162;53.642;10.640;2023-05-27T09:08:29;26.20;54.90
44461;DHT22;30162;53.642;10.640;2023-05-27T09:10:55;26.40;55.90
44461;DHT22;30162;53.642;10.640;2023-05-27T09:13:27;26.60;54.40
44461;DHT22;30162;53.642;10.640;2023-05-27T09:16:02;26.70;54.40
44461;DHT22;30162;53.642;10.640;2023-05-27T09:18:29;26.70;55.10
44461;DHT22;30162;53.642;10.640;2023-05-27T09:20:55;26.60;54.20
44461;DHT22;30162;53.642;10.640;2023-05-27T09:23:20;26.50;54.90
44461;DHT22;30162;53.642;10.640;2023-05-27T09:25:46;25.80;56.00
44461;DHT22;30162;53.642;10.640;2023-05-27T09:28:12;25.80;56.00
44461;DHT22;30162;53.642;10.640;2023-05-27T09:30:37;26.00;55.40
44461;DHT22;30162;53.642;10.640;2023-05-27T09:33:03;26.20;54.50
44461;DHT22;30162;53.642;10.640;2023-05-27T09:35:29;26.00;54.10
44461;DHT22;30162;53.642;10.640;2023-05-27T09:37:55;25.90;55.40
44461;DHT22;30162;53.642;10.640;2023-05-27T09:40:30;26.20;53.40
44461;DHT22;30162;53.642;10.640;2023-05-27T09:42:56;26.50;53.00
44461;DHT22;30162;53.642;10.640;2023-05-27T09:45:22;26.70;52.60
44461;DHT22;30162;53.642;10.640;2023-05-27T09:47:49;26.60;51.00
44461;DHT22;30162;53.642;10.640;2023-05-27T09:50:15;26.00;51.80
44461;DHT22;30162;53.642;10.640;2023-05-27T09:52:41;26.30;52.80
44461;DHT22;30162;53.642;10.640;2023-05-27T09:55:07;26.80;51.00
44461;DHT22;30162;53.642;10.640;2023-05-27T09:57:33;27.00;52.30
44461;DHT22;30162;53.642;10.640;2023-05-27T09:59:59;27.20;51.30
44461;DHT22;30162;53.642;10.640;2023-05-27T10:02:25;27.60;51.40
44461;DHT22;30162;53.642;10.640;2023-05-27T10:04:51;28.10;51.10
44461;DHT22;30162;53.642;10.640;2023-05-27T10:07:17;28.20;49.10
44461;DHT22;30162;53.642;10.640;2023-05-27T10:09:44;28.00;50.70
44461;DHT22;30162;53.642;10.640;2023-05-27T10:12:09;27.50;51.40
44461;DHT22;30162;53.642;10.640;2023-05-27T10:14:35;27.10;52.30
44461;DHT22;30162;53.642;10.640;2023-05-27T10:17:01;27.00;53.10
44461;DHT22;30162;53.642;10.640;2023-05-27T10:19:26;27.10;52.90
44461;DHT22;30162;53.642;10.640;2023-05-27T10:21:52;26.90;53.20
44461;DHT22;30162;53.642;10.640;2023-05-27T10:24:18;26.50;53.10
44461;DHT22;30162;53.642;10.640;2023-05-27T10:26:44;26.20;53.30
44461;DHT22;30162;53.642;10.640;2023-05-27T10:29:13;25.90;53.60
44461;DHT22;30162;53.642;10.640;2023-05-27T10:34:10;25.00;56.00
44461;DHT22;30162;53.642;10.640;2023-05-27T10:36:36;25.70;55.50
44461;DHT22;30162;53.642;10.640;2023-05-27T10:39:05;26.30;53.70
44461;DHT22;30162;53.642;10.640;2023-05-27T10:41:41;26.90;53.00
44461;DHT22;30162;53.642;10.640;2023-05-27T10:44:07;27.10;52.50
44461;DHT22;30162;53.642;10.640;2023-05-27T10:46:43;27.20;50.80
44461;DHT22;30162;53.642;10.640;2023-05-27T10:49:09;27.40;51.90
44461;DHT22;30162;53.642;10.640;2023-05-27T10:51:35;27.90;51.70
44461;DHT22;30162;53.642;10.640;2023-05-27T10:54:04;28.20;49.50
44461;DHT22;30162;53.642;10.640;2023-05-27T10:56:30;26.10;50.80
44461;DHT22;30162;53.642;10.640;2023-05-27T10:58:57;25.00;53.70
44461;DHT22;30162;53.642;10.640;2023-05-27T11:01:24;24.60;53.30
44461;DHT22;30162;53.642;10.640;2023-05-27T11:03:51;25.30;54.10
44461;DHT22;30162;53.642;10.640;2023-05-27T11:06:19;26.10;52.30
44461;DHT22;30162;53.642;10.640;2023-05-27T11:08:45;26.40;53.50
44461;DHT22;30162;53.642;10.640;2023-05-27T11:11:11;26.50;52.40
44461;DHT22;30162;53.642;10.640;2023-05-27T11:13:43;26.10;52.50
44461;DHT22;30162;53.642;10.640;2023-05-27T11:16:09;26.20;52.30
44461;DHT22;30162;53.642;10.640;2023-05-27T11:18:35;25.80;51.80
44461;DHT22;30162;53.642;10.640;2023-05-27T11:21:01;25.60;52.60
44461;DHT22;30162;53.642;10.640;2023-05-27T11:23:42;26.40;53.50
44461;DHT22;30162;53.642;10.640;2023-05-27T11:26:12;27.20;52.60
44461;DHT22;30162;53.642;10.640;2023-05-27T11:28:44;27.80;51.50
44461;DHT22;30162;53.642;10.640;2023-05-27T11:31:10;28.10;51.10
44461;DHT22;30162;53.642;10.640;2023-05-27T11:33:35;28.10;50.40
44461;DHT22;30162;53.642;10.640;2023-05-27T11:36:05;28.40;50.60
44461;DHT22;30162;53.642;10.640;2023-05-27T11:38:32;28.40;50.70
44461;DHT22;30162;53.642;10.640;2023-05-27T11:41:07;28.50;50.60
44461;DHT22;30162;53.642;10.640;2023-05-27T11:43:33;28.60;50.30
44461;DHT22;30162;53.642;10.640;2023-05-27T11:46:04;27.80;49.50
44461;DHT22;30162;53.642;10.640;2023-05-27T11:48:29;27.50;50.30
44461;DHT22;30162;53.642;10.640;2023-05-27T11:50:55;26.90;51.40
44461;DHT22;30162;53.642;10.640;2023-05-27T11:53:20;26.70;52.50
44461;DHT22;30162;53.642;10.640;2023-05-27T11:55:46;26.90;53.00
44461;DHT22;30162;53.642;10.640;2023-05-27T11:58:11;27.20;52.50
44461;DHT22;30162;53.642;10.640;2023-05-27T12:00:37;27.30;51.30
44461;DHT22;30162;53.642;10.640;2023-05-27T12:03:02;27.20;51.60
44461;DHT22;30162;53.642;10.640;2023-05-27T12:05:28;27.80;51.40
44461;DHT22;30162;53.642;10.640;2023-05-27T12:07:53;28.50;50.00
44461;DHT22;30162;53.642;10.640;2023-05-27T12:10:18;28.90;50.30
44461;DHT22;30162;53.642;10.640;2023-05-27T12:12:44;29.30;50.30
44461;DHT22;30162;53.642;10.640;2023-05-27T12:15:09;29.40;48.90
44461;DHT22;30162;53.642;10.640;2023-05-27T12:17:35;29.00;50.00
44461;DHT22;30162;53.642;10.640;2023-05-27T12:20:01;28.70;49.70
44461;DHT22;30162;53.642;10.640;2023-05-27T12:22:26;28.70;50.50
44461;DHT22;30162;53.642;10.640;2023-05-27T12:24:52;29.00;50.20
44461;DHT22;30162;53.642;10.640;2023-05-27T12:27:18;29.30;49.30
44461;DHT22;30162;53.642;10.640;2023-05-27T12:29:44;29.50;49.20
44461;DHT22;30162;53.642;10.640;2023-05-27T12:32:09;29.80;49.70
44461;DHT22;30162;53.642;10.640;2023-05-27T12:34:35;29.70;48.20
44461;DHT22;30162;53.642;10.640;2023-05-27T12:37:00;29.40;47.20
44461;DHT22;30162;53.642;10.640;2023-05-27T12:39:26;28.80;48.90
44461;DHT22;30162;53.642;10.640;2023-05-27T12:41:51;28.40;48.20
44461;DHT22;30162;53.642;10.640;2023-05-27T12:44:17;28.30;49.80
44461;DHT22;30162;53.642;10.640;2023-05-27T12:46:43;28.70;49.30
44461;DHT22;30162;53.642;10.640;2023-05-27T12:49:09;28.80;48.80
44461;DHT22;30162;53.642;10.640;2023-05-27T12:51:34;28.40;49.60
44461;DHT22;30162;53.642;10.640;2023-05-27T12:54:00;28.20;49.90
44461;DHT22;30162;53.642;10.640;2023-05-27T12:56:25;28.20;50.40
44461;DHT22;30162;53.642;10.640;2023-05-27T12:58:51;28.20;50.50
44461;DHT22;30162;53.642;10.640;2023-05-27T13:01:16;28.40;51.00
44461;DHT22;30162;53.642;10.640;2023-05-27T13:03:42;28.60;50.30
44461;DHT22;30162;53.642;10.640;2023-05-27T13:06:07;28.70;51.10
44461;DHT22;30162;53.642;10.640;2023-05-27T13:08:33;28.80;50.30
44461;DHT22;30162;53.642;10.640;2023-05-27T13:10:59;28.90;49.40
44461;DHT22;30162;53.642;10.640;2023-05-27T13:13:24;29.10;50.30
44461;DHT22;30162;53.642;10.640;2023-05-27T13:15:50;29.00;50.30
44461;DHT22;30162;53.642;10.640;2023-05-27T13:18:15;29.00;50.00
44461;DHT22;30162;53.642;10.640;2023-05-27T13:20:41;29.20;49.60
44461;DHT22;30162;53.642;10.640;2023-05-27T13:23:06;29.00;49.70
44461;DHT22;30162;53.642;10.640;2023-05-27T13:25:32;29.30;50.00
44461;DHT22;30162;53.642;10.640;2023-05-27T13:27:58;29.30;49.10
44461;DHT22;30162;53.642;10.640;2023-05-27T13:30:23;29.10;49.00
44461;DHT22;30162;53.642;10.640;2023-05-27T13:32:49;29.20;49.30
44461;DHT22;30162;53.642;10.640;2023-05-27T13:35:14;29.50;48.70
44461;DHT22;30162;53.642;10.640;2023-05-27T13:37:40;29.30;48.40
44461;DHT22;30162;53.642;10.640;2023-05-27T13:40:06;29.30;49.10
44461;DHT22;30162;53.642;10.640;2023-05-27T13:42:32;29.60;49.00
44461;DHT22;30162;53.642;10.640;2023-05-27T13:44:58;29.50;49.30
44461;DHT22;30162;53.642;10.640;2023-05-27T13:47:23;29.50;48.80
44461;DHT22;30162;53.642;10.640;2023-05-27T13:49:49;29.70;48.80
44461;DHT22;30162;53.642;10.640;2023-05-27T13:52:15;29.60;48.30
44461;DHT22;30162;53.642;10.640;2023-05-27T13:54:40;29.50;47.20
44461;DHT22;30162;53.642;10.640;2023-05-27T13:57:06;29.00;47.60
44461;DHT22;30162;53.642;10.640;2023-05-27T13:59:31;27.70;49.10
44461;DHT22;30162;53.642;10.640;2023-05-27T14:01:57;27.60;50.30
44461;DHT22;30162;53.642;10.640;2023-05-27T14:04:29;28.10;49.60
44461;DHT22;30162;53.642;10.640;2023-05-27T14:06:55;28.40;49.10
44461;DHT22;30162;53.642;10.640;2023-05-27T14:09:20;28.50;49.40
44461;DHT22;30162;53.642;10.640;2023-05-27T14:11:45;28.70;49.50
44461;DHT22;30162;53.642;10.640;2023-05-27T14:14:11;28.20;51.10
44461;DHT22;30162;53.642;10.640;2023-05-27T14:16:37;28.40;49.90
44461;DHT22;30162;53.642;10.640;2023-05-27T14:19:02;28.50;50.10
44461;DHT22;30162;53.642;10.640;2023-05-27T14:21:28;28.50;49.50
44461;DHT22;30162;53.642;10.640;2023-05-27T14:23:53;28.70;49.80
44461;DHT22;30162;53.642;10.640;2023-05-27T14:26:19;29.00;49.60
44461;DHT22;30162;53.642;10.640;2023-05-27T14:28:44;29.30;49.40
44461;DHT22;30162;53.642;10.640;2023-05-27T14:31:09;29.40;48.50
44461;DHT22;30162;53.642;10.640;2023-05-27T14:33:35;29.20;47.90
44461;DHT22;30162;53.642;10.640;2023-05-27T14:36:00;29.00;49.50
44461;DHT22;30162;53.642;10.640;2023-05-27T14:38:26;29.10;49.50
44461;DHT22;30162;53.642;10.640;2023-05-27T14:40:51;29.30;49.60
44461;DHT22;30162;53.642;10.640;2023-05-27T14:43:17;29.10;49.30
44461;DHT22;30162;53.642;10.640;2023-05-27T14:45:42;29.20;49.00
44461;DHT22;30162;53.642;10.640;2023-05-27T14:48:08;29.30;49.20
44461;DHT22;30162;53.642;10.640;2023-05-27T14:50:33;29.40;49.00
44461;DHT22;30162;53.642;10.640;2023-05-27T14:52:59;28.40;48.80
44461;DHT22;30162;53.642;10.640;2023-05-27T14:55:24;28.30;50.70
44461;DHT22;30162;53.642;10.640;2023-05-27T14:57:50;28.20;49.60
44461;DHT22;30162;53.642;10.640;2023-05-27T15:00:16;28.50;50.10
44461;DHT22;30162;53.642;10.640;2023-05-27T15:02:41;28.80;49.80
44461;DHT22;30162;53.642;10.640;2023-05-27T15:05:07;28.90;49.50
44461;DHT22;30162;53.642;10.640;2023-05-27T15:07:34;28.70;49.20
44461;DHT22;30162;53.642;10.640;2023-05-27T15:10:00;28.80;49.50
44461;DHT22;30162;53.642;10.640;2023-05-27T15:12:38;28.80;50.70